Time;durP1;ratioP1;P1;durP2;ratioP2;P2;SDS_P1;SDS_P2;PMS_P1;PMS_P2;Temp;Humidity;BMP_temperature;BMP_pressure;BME280_temperature;BME280_humidity;BME280_pressure;Samples;Min_cycle;Max_cycle;Signal;HPM_P1;HPM_P2
2024/01/24 00:02:00;;;;;;;16.70;12.23;;;;;;;-1.89;84.11;97882.16;5065817;28;20667;-58
2024/01/24 00:04:28;;;;;;;22.53;13.73;;;;;;;-1.82;84.15;97876.34;5066620;28;20200;-60
2024/01/24 00:06:55;;;;;;;22.37;13.60;;;;;;;-1.90;82.85;97884.69;5065753;28;20541;-58
2024/01/24 00:09:22;;;;;;;18.60;11.57;;;;;;;-2.01;82.89;97887.03;5066909;28;20199;-60
2024/01/24 00:11:49;;;;;;;21.80;13.07;;;;;;;-2.17;83.92;97874.94;5065525;28;20197;-60
2024/01/24 00:14:16;;;;;;;20.07;12.10;;;;;;;-2.21;84.78;97888.38;5066664;28;20259;-60
2024/01/24 00:16:43;;;;;;;20.17;12.67;;;;;;;-2.33;84.73;97889.84;5065726;28;20320;-59
2024/01/24 00:19:10;;;;;;;17.93;11.83;;;;;;;-2.37;84.26;97894.00;5066554;28;20317;-57
2024/01/24 00:21:37;;;;;;;20.23;11.70;;;;;;;-2.59;85.84;97897.81;5066242;28;20189;-60
2024/01/24 00:24:04;;;;;;;18.37;11.00;;;;;;;-2.40;86.33;97883.81;5065550;28;20814;-60
2024/01/24 00:26:33;;;;;;;14.30;10.30;;;;;;;-2.45;85.95;97885.41;5065233;28;20225;-59
2024/01/24 00:29:00;;;;;;;17.83;10.40;;;;;;;-2.26;86.33;97910.25;5065568;28;20283;-60
2024/01/24 00:31:27;;;;;;;16.33;10.17;;;;;;;-2.30;85.60;97908.50;5066662;28;20190;-59
2024/01/24 00:33:55;;;;;;;16.67;10.10;;;;;;;-2.33;85.99;97893.25;5065101;28;20710;-59
2024/01/24 00:36:23;;;;;;;14.00;9.30;;;;;;;-2.34;85.84;97901.66;5048443;28;20197;-63
2024/01/24 00:38:50;;;;;;;14.77;9.07;;;;;;;-2.38;85.70;97907.50;5066133;28;20281;-59
2024/01/24 00:41:17;;;;;;;15.83;9.70;;;;;;;-2.29;86.71;97897.56;5047903;28;20275;-60
2024/01/24 00:43:44;;;;;;;19.07;10.13;;;;;;;-2.23;85.21;97904.41;5066223;28;20308;-59
2024/01/24 00:46:11;;;;;;;18.93;10.60;;;;;;;-2.35;85.54;97894.91;5065168;28;20206;-61
2024/01/24 00:48:38;;;;;;;14.53;8.37;;;;;;;-2.30;85.26;97890.75;5066168;28;20214;-60
2024/01/24 00:51:05;;;;;;;15.30;8.80;;;;;;;-2.24;85.41;97897.59;5065245;28;20651;-60
2024/01/24 00:53:34;;;;;;;20.13;9.60;;;;;;;-2.22;85.44;97899.34;5066368;28;20184;-60
2024/01/24 00:56:03;;;;;;;14.40;8.97;;;;;;;-2.06;84.47;97896.25;5065348;28;20244;-59
2024/01/24 00:58:30;;;;;;;20.17;9.63;;;;;;;-2.00;83.35;97881.13;5065516;28;20197;-60
2024/01/24 01:00:58;;;;;;;15.43;9.97;;;;;;;-2.00;83.37;97881.13;5065800;28;20275;-60
2024/01/24 01:03:25;;;;;;;16.03;10.27;;;;;;;-2.15;83.48;97891.03;5065009;28;20675;-59
2024/01/24 01:05:52;;;;;;;19.87;9.57;;;;;;;-2.16;84.05;97883.38;5066218;28;20529;-59
2024/01/24 01:08:19;;;;;;;18.97;10.57;;;;;;;-2.20;83.83;97889.22;5064788;28;20676;-59
2024/01/24 01:10:46;;;;;;;21.30;12.03;;;;;;;-2.22;84.56;97885.81;5066061;28;20200;-59
2024/01/24 01:13:13;;;;;;;21.37;11.17;;;;;;;-2.28;84.23;97894.16;5064958;28;20563;-62
2024/01/24 01:15:41;;;;;;;11.97;9.07;;;;;;;-2.11;83.76;97879.25;5065401;28;20225;-63
2024/01/24 01:18:10;;;;;;;19.77;12.40;;;;;;;-2.13;83.71;97886.84;5047788;28;20209;-61
2024/01/24 01:20:37;;;;;;;14.67;8.77;;;;;;;-2.19;83.23;97889.28;5064958;28;20223;-60
2024/01/24 01:23:05;;;;;;;20.57;10.07;;;;;;;-2.13;84.57;97880.91;5066067;28;20236;-63
2024/01/24 01:25:32;;;;;;;15.50;9.57;;;;;;;-1.96;83.23;97890.47;5063245;28;20200;-60
2024/01/24 01:27:59;;;;;;;15.20;10.30;;;;;;;-2.01;83.71;97876.88;5065774;28;20262;-59
2024/01/24 01:30:26;;;;;;;16.80;10.60;;;;;;;-2.01;82.93;97869.28;5064619;28;20207;-59
2024/01/24 01:32:53;;;;;;;14.27;8.63;;;;;;;-2.12;82.50;97880.91;5065733;28;20653;-59
2024/01/24 01:35:20;;;;;;;14.93;10.00;;;;;;;-2.47;84.75;97867.63;5065401;28;20256;-59
2024/01/24 01:37:48;;;;;;;20.03;10.50;;;;;;;-2.26;83.56;97882.38;5047144;28;20387;-59
2024/01/24 01:40:15;;;;;;;14.33;8.23;;;;;;;-2.38;84.41;97866.09;5066084;28;20711;-58
2024/01/24 01:42:44;;;;;;;14.43;8.13;;;;;;;-2.56;84.46;97842.13;5064654;28;20285;-58
2024/01/24 01:45:11;;;;;;;13.73;9.07;;;;;;;-2.35;84.65;97869.53;5065330;28;20763;-59
2024/01/24 01:47:39;;;;;;;14.67;9.20;;;;;;;-2.21;83.84;97890.94;5065026;28;20528;-60
2024/01/24 01:50:14;;;;;;;14.33;8.30;;;;;;;-2.23;83.86;97884.97;5065456;28;20575;-59
2024/01/24 01:52:42;;;;;;;12.93;7.97;;;;;;;-2.32;84.33;97874.66;5065401;28;20563;-60
2024/01/24 01:55:11;;;;;;;13.73;8.07;;;;;;;-2.22;82.96;97883.25;5064536;28;20314;-59
2024/01/24 01:57:42;;;;;;;11.20;6.70;;;;;;;-2.41;82.99;97871.94;5065652;28;20193;-60
2024/01/24 02:00:10;;;;;;;10.03;7.30;;;;;;;-2.38;83.64;97871.16;5064397;28;20672;-58
2024/01/24 02:02:38;;;;;;;11.47;7.37;;;;;;;-2.36;83.79;97872.03;5065458;28;20208;-58
2024/01/24 02:05:05;;;;;;;11.37;7.50;;;;;;;-2.23;83.15;97877.38;5030027;28;20203;-59
2024/01/24 02:07:32;;;;;;;11.93;6.97;;;;;;;-2.15;83.03;97878.34;5065108;28;20611;-60
2024/01/24 02:09:59;;;;;;;12.17;7.27;;;;;;;-2.20;82.08;97877.41;5065145;28;20196;-59
2024/01/24 02:12:27;;;;;;;11.07;7.07;;;;;;;-2.26;83.13;97876.44;5064333;28;20207;-59
2024/01/24 02:14:54;;;;;;;12.47;7.40;;;;;;;-2.20;82.55;97871.47;5065413;28;20645;-59
2024/01/24 02:17:21;;;;;;;10.60;6.40;;;;;;;-2.37;82.55;97873.69;5064296;28;20277;-59
2024/01/24 02:19:49;;;;;;;12.13;7.77;;;;;;;-2.26;82.36;97871.38;5065429;28;20571;-58
2024/01/24 02:22:16;;;;;;;10.80;7.13;;;;;;;-2.12;81.87;97880.09;5064449;28;20654;-58
2024/01/24 02:24:43;;;;;;;11.77;7.57;;;;;;;-2.27;82.79;97865.47;5064762;28;20698;-61
2024/01/24 02:27:10;;;;;;;11.30;7.53;;;;;;;-2.47;83.03;97863.41;5068231;28;20822;-62
2024/01/24 02:29:37;;;;;;;9.80;6.47;;;;;;;-2.40;83.31;97858.47;5068061;28;20615;-60
2024/01/24 02:32:04;;;;;;;11.00;6.97;;;;;;;-2.35;84.30;97874.63;5068771;28;20199;-63
2024/01/24 02:34:31;;;;;;;13.27;7.43;;;;;;;-2.27;83.02;97867.13;5067244;28;20240;-62
2024/01/24 02:36:58;;;;;;;11.90;7.63;;;;;;;-2.24;83.44;97864.63;5068866;28;20871;-62
2024/01/24 02:39:25;;;;;;;12.03;7.40;;;;;;;-2.09;82.75;97860.69;5049531;28;20678;-62
2024/01/24 02:41:53;;;;;;;12.60;6.60;;;;;;;-2.14;82.60;97874.97;5068492;28;20200;-61
2024/01/24 02:44:20;;;;;;;10.90;6.87;;;;;;;-2.11;82.67;97872.50;5068258;28;20193;-61
2024/01/24 02:46:47;;;;;;;11.77;6.33;;;;;;;-2.06;82.09;97877.66;5049875;28;20840;-62
2024/01/24 02:49:14;;;;;;;11.03;7.17;;;;;;;-2.04;82.13;97889.50;5068927;28;20384;-62
2024/01/24 02:51:41;;;;;;;10.70;6.70;;;;;;;-2.11;82.16;97862.34;5067251;28;20607;-62
2024/01/24 02:54:08;;;;;;;12.07;6.97;;;;;;;-1.99;82.12;97887.91;5068353;28;20201;-61
2024/01/24 02:56:37;;;;;;;9.97;6.47;;;;;;;-1.93;81.99;97888.00;5066976;28;20375;-60
2024/01/24 02:59:05;;;;;;;10.53;6.60;;;;;;;-1.96;81.62;97882.03;5068485;28;20204;-62
2024/01/24 03:01:32;;;;;;;10.23;6.00;;;;;;;-1.94;82.59;97885.47;5067742;28;20231;-60
2024/01/24 03:03:59;;;;;;;7.93;5.63;;;;;;;-1.88;81.78;97875.41;5067700;28;20193;-61
2024/01/24 03:06:26;;;;;;;11.40;6.13;;;;;;;-1.79;81.43;97881.47;5050159;28;20192;-62
2024/01/24 03:08:56;;;;;;;10.03;6.10;;;;;;;-1.76;80.75;97886.59;5066823;28;20258;-60
2024/01/24 03:11:24;;;;;;;8.90;5.90;;;;;;;-2.07;81.16;97892.00;5068283;28;20197;-62
2024/01/24 03:13:51;;;;;;;17.80;9.07;;;;;;;-2.08;82.77;97884.38;5066663;28;20232;-62
2024/01/24 03:16:18;;;;;;;34.93;14.67;;;;;;;-1.92;82.22;97874.50;5067955;28;20722;-60
2024/01/24 03:18:47;;;;;;;17.10;8.87;;;;;;;-2.02;82.14;97871.78;5067162;28;20723;-62
2024/01/24 03:21:17;;;;;;;12.43;6.90;;;;;;;-1.98;82.27;97871.84;5067272;28;20224;-61
2024/01/24 03:23:45;;;;;;;12.17;6.97;;;;;;;-1.95;81.68;97879.53;5067630;28;20245;-62
2024/01/24 03:26:16;;;;;;;9.57;6.23;;;;;;;-2.07;82.02;97853.09;5066212;28;20201;-59
2024/01/24 03:28:43;;;;;;;11.93;6.40;;;;;;;-2.05;82.19;97864.97;5067622;28;20204;-60
2024/01/24 03:31:10;;;;;;;10.20;6.03;;;;;;;-2.06;83.33;97886.09;5066463;28;20286;-61
2024/01/24 03:33:37;;;;;;;9.03;5.47;;;;;;;-1.86;83.01;97883.91;5067529;28;20205;-60
2024/01/24 03:36:05;;;;;;;9.80;5.53;;;;;;;-1.84;82.31;97879.69;5079153;28;20230;-62
2024/01/24 03:38:33;;;;;;;10.47;5.60;;;;;;;-1.69;81.88;97883.31;5086350;28;20670;-62
2024/01/24 03:41:00;;;;;;;9.50;5.60;;;;;;;-1.67;82.03;97880.81;5088001;28;20196;-58
2024/01/24 03:43:27;;;;;;;8.77;5.00;;;;;;;-1.56;82.37;97891.97;5086623;28;20205;-59
2024/01/24 03:45:55;;;;;;;7.37;4.97;;;;;;;-1.34;84.88;97880.44;5087785;28;20226;-61
2024/01/24 03:48:22;;;;;;;9.27;5.83;;;;;;;-1.37;83.45;97872.78;5086118;28;20231;-62
2024/01/24 03:50:49;;;;;;;11.30;6.47;;;;;;;-1.39;82.82;97865.13;5069385;28;20206;-61
2024/01/24 03:53:16;;;;;;;10.93;6.10;;;;;;;-1.13;84.47;97875.63;5086564;28;20273;-62
2024/01/24 03:55:43;;;;;;;11.03;6.60;;;;;;;-1.01;84.38;97871.56;5086893;28;20237;-61
2024/01/24 03:58:10;;;;;;;10.50;6.23;;;;;;;-0.12;89.32;97867.47;5087234;28;20192;-59
2024/01/24 04:00:37;;;;;;;10.97;5.93;;;;;;;0.37;88.60;97860.22;5086388;28;20748;-59
2024/01/24 04:03:05;;;;;;;11.50;6.50;;;;;;;0.82;89.11;97857.97;5087243;28;20287;-59
2024/01/24 04:05:32;;;;;;;10.33;6.20;;;;;;;1.25;88.71;97875.16;5067430;28;20200;-61
2024/01/24 04:07:59;;;;;;;9.87;5.53;;;;;;;1.62;87.21;97866.78;5052736;28;20200;-61
2024/01/24 04:10:26;;;;;;;11.60;6.63;;;;;;;1.76;86.27;97864.25;5086666;28;20202;-59
2024/01/24 04:12:54;;;;;;;9.80;5.37;;;;;;;1.90;85.69;97870.22;5087469;28;20310;-59
2024/01/24 04:15:21;;;;;;;15.17;6.80;;;;;;;1.58;81.84;97875.28;5086865;28;20410;-60
2024/01/24 04:17:49;;;;;;;8.43;5.43;;;;;;;1.57;85.21;97865.91;5084487;28;20200;-59
2024/01/24 04:20:16;;;;;;;7.27;4.97;;;;;;;2.18;84.80;97874.50;5068706;28;20632;-59
2024/01/24 04:22:43;;;;;;;7.30;4.73;;;;;;;2.41;83.43;97879.63;5085541;28;20697;-59
2024/01/24 04:25:11;;;;;;;8.17;5.27;;;;;;;2.60;82.83;97876.19;5086986;28;20667;-61
2024/01/24 04:27:38;;;;;;;9.00;4.60;;;;;;;2.92;82.01;97889.78;5085702;28;20663;-62
2024/01/24 04:30:06;;;;;;;11.53;5.07;;;;;;;2.99;81.19;97894.00;5086562;28;20193;-58
2024/01/24 04:32:33;;;;;;;11.57;6.53;;;;;;;2.25;77.71;97888.13;5086124;28;20188;-62
2024/01/24 04:35:00;;;;;;;11.57;6.20;;;;;;;1.79;76.40;97886.38;5085820;28;20272;-60
2024/01/24 04:37:30;;;;;;;11.47;6.90;;;;;;;1.31;78.10;97895.59;5086959;28;20637;-60
2024/01/24 04:39:57;;;;;;;11.40;6.40;;;;;;;0.99;79.26;97904.78;5085376;28;20246;-59
2024/01/24 04:42:24;;;;;;;12.60;7.17;;;;;;;0.76;80.84;97891.06;5086844;28;20205;-60
2024/01/24 04:44:51;;;;;;;11.03;7.57;;;;;;;0.60;80.80;97901.97;5085305;28;20192;-59
2024/01/24 04:47:18;;;;;;;13.30;7.13;;;;;;;0.53;81.66;97903.66;5086264;28;20203;-59
2024/01/24 04:49:46;;;;;;;13.60;7.00;;;;;;;0.54;81.61;97902.78;5067744;28;20597;-59
2024/01/24 04:52:13;;;;;;;10.67;7.13;;;;;;;0.59;82.10;97906.25;5085655;28;20222;-60
2024/01/24 04:54:41;;;;;;;10.47;6.90;;;;;;;0.55;80.63;97908.75;5086347;28;20595;-59
2024/01/24 04:57:09;;;;;;;11.93;7.07;;;;;;;0.60;81.35;97912.16;5083320;28;20731;-60
2024/01/24 04:59:36;;;;;;;8.33;5.93;;;;;;;0.70;82.43;97911.41;5086525;28;20576;-60
2024/01/24 05:02:19;;;;;;;10.40;6.43;;;;;;;0.74;83.03;97928.44;5066975;28;20193;-59
2024/01/24 05:04:47;;;;;;;10.13;5.97;;;;;;;1.76;85.66;97911.88;5086005;28;20196;-59
2024/01/24 05:07:15;;;;;;;9.10;5.30;;;;;;;2.45;83.38;97919.66;5085994;28;20262;-58
2024/01/24 05:09:43;;;;;;;10.97;6.07;;;;;;;2.82;82.03;97923.91;5084988;28;20208;-61
2024/01/24 05:12:10;;;;;;;11.63;5.70;;;;;;;3.02;81.33;97926.41;5067782;28;20573;-60
2024/01/24 05:14:38;;;;;;;12.23;6.03;;;;;;;3.06;80.24;97928.97;5084588;28;20192;-61
2024/01/24 05:17:05;;;;;;;10.50;6.43;;;;;;;2.97;80.16;97941.75;5086175;28;20224;-60
2024/01/24 05:19:32;;;;;;;13.00;7.43;;;;;;;2.48;78.41;97946.06;5084800;28;20298;-59
2024/01/24 05:22:00;;;;;;;7.47;4.40;;;;;;;2.69;80.23;97936.69;5085850;28;20222;-60
2024/01/24 05:24:27;;;;;;;9.63;5.10;;;;;;;3.00;80.06;97930.69;5084916;28;20779;-59
2024/01/24 05:26:54;;;;;;;8.93;5.30;;;;;;;3.36;78.99;97957.91;5065859;28;20223;-61
2024/01/24 05:29:21;;;;;;;12.10;5.27;;;;;;;3.37;78.42;97969.81;5085747;28;20283;-59
2024/01/24 05:31:48;;;;;;;7.60;5.40;;;;;;;3.45;78.37;97953.59;5083868;28;20188;-60
2024/01/24 05:34:15;;;;;;;9.63;5.87;;;;;;;3.45;77.82;97973.22;5067925;28;20435;-61
2024/01/24 05:36:42;;;;;;;10.27;5.93;;;;;;;3.23;78.49;97968.16;5084281;28;20220;-63
2024/01/24 05:39:49;;;;;;;12.53;7.87;;;;;;;2.89;76.35;97956.28;5085149;28;20709;-60
2024/01/24 05:43:10;;;;;;;10.97;5.83;;;;;;;3.11;79.76;97963.06;5084204;28;20196;-61
2024/01/24 05:46:31;;;;;;;10.03;6.13;;;;;;;3.33;79.20;97963.00;5083099;28;20967;-61
2024/01/24 05:49:54;;;;;;;10.50;6.50;;;;;;;3.36;79.25;97973.25;5083131;28;20198;-63
2024/01/24 05:53:15;;;;;;;9.40;5.80;;;;;;;3.35;79.49;97972.41;5084266;28;20193;-60
2024/01/24 05:56:38;;;;;;;12.10;6.60;;;;;;;3.47;78.79;97974.06;5085070;28;20224;-64
2024/01/24 05:59:59;;;;;;;11.57;6.13;;;;;;;3.57;78.27;97963.78;5084060;28;21264;-63
2024/01/24 06:03:20;;;;;;;9.50;5.60;;;;;;;3.67;77.69;97977.44;5087034;28;20192;-63
2024/01/24 06:06:41;;;;;;;10.00;6.33;;;;;;;3.67;78.04;97987.69;5087424;28;20195;-64
2024/01/24 06:10:01;;;;;;;10.60;5.90;;;;;;;3.71;77.50;97984.25;5088626;28;20290;-63
2024/01/24 06:13:24;;;;;;;11.67;6.07;;;;;;;3.76;77.34;97977.38;5089162;28;20870;-62
2024/01/24 06:16:45;;;;;;;9.33;5.57;;;;;;;3.78;77.57;97998.72;5086881;28;20221;-60
2024/01/24 06:20:06;;;;;;;12.43;6.90;;;;;;;3.79;77.74;97987.63;5087042;28;20186;-62
2024/01/24 06:23:26;;;;;;;10.33;5.47;;;;;;;3.87;76.97;97991.84;5088277;28;20193;-62
2024/01/24 06:26:47;;;;;;;12.40;6.77;;;;;;;3.95;76.79;97994.38;5088360;28;20280;-60
2024/01/24 06:30:09;;;;;;;8.27;5.60;;;;;;;4.00;76.18;97990.06;5069520;28;20679;-61
2024/01/24 06:33:30;;;;;;;10.50;6.47;;;;;;;4.15;75.32;98005.38;5086791;28;20189;-60
2024/01/24 06:36:50;;;;;;;11.27;7.20;;;;;;;4.18;75.75;97997.69;5087025;28;20213;-60
2024/01/24 06:40:11;;;;;;;9.83;6.17;;;;;;;4.23;74.96;98002.75;5069619;28;20287;-61
2024/01/24 06:43:32;;;;;;;14.00;6.37;;;;;;;4.27;75.49;97997.63;5087903;28;20187;-62
2024/01/24 06:46:53;;;;;;;11.73;6.47;;;;;;;4.29;75.36;97997.59;5068387;28;20297;-62
2024/01/24 06:50:14;;;;;;;10.93;6.73;;;;;;;4.29;75.06;97987.34;5086588;28;20188;-60
2024/01/24 06:53:35;;;;;;;10.93;6.60;;;;;;;4.37;74.47;97996.69;5069418;28;20186;-61
2024/01/24 06:56:55;;;;;;;9.13;5.47;;;;;;;4.40;74.25;97981.31;5087555;28;20221;-64
2024/01/24 07:00:18;;;;;;;12.10;7.30;;;;;;;4.49;74.06;97985.53;5086888;28;20601;-65
2024/01/24 07:03:40;;;;;;;8.93;6.20;;;;;;;4.51;74.72;97989.78;5085869;28;20203;-61
2024/01/24 07:07:01;;;;;;;11.37;6.50;;;;;;;4.51;74.03;98000.03;5070800;28;20313;-62
2024/01/24 07:10:22;;;;;;;11.50;6.73;;;;;;;4.54;74.91;98000.00;5087323;28;20213;-64
2024/01/24 07:13:43;;;;;;;11.07;6.77;;;;;;;4.65;74.73;98002.50;5087048;28;20197;-62
2024/01/24 07:17:05;;;;;;;10.67;6.57;;;;;;;4.79;73.32;98004.09;5086017;28;20629;-62
2024/01/24 07:20:26;;;;;;;8.53;6.60;;;;;;;4.89;72.98;97998.03;5085768;28;20189;-60
2024/01/24 07:23:46;;;;;;;8.67;5.80;;;;;;;4.88;72.86;98010.88;5087013;28;20226;-62
2024/01/24 07:27:08;;;;;;;8.27;5.60;;;;;;;4.88;72.38;98023.72;5086942;28;20777;-64
2024/01/24 07:30:29;;;;;;;10.03;5.37;;;;;;;4.73;72.97;98029.81;5086085;28;20264;-64
2024/01/24 07:33:49;;;;;;;10.70;7.13;;;;;;;4.80;73.13;98023.75;5085111;28;20190;-64
2024/01/24 07:37:10;;;;;;;10.80;6.63;;;;;;;4.71;72.89;98035.81;5086221;28;20749;-60
2024/01/24 07:40:31;;;;;;;8.77;6.53;;;;;;;4.77;73.31;98033.19;5069143;28;20191;-61
2024/01/24 07:43:52;;;;;;;9.23;6.20;;;;;;;4.81;72.97;98027.19;5086578;28;20186;-61
2024/01/24 07:47:12;;;;;;;10.00;6.00;;;;;;;4.68;73.61;98038.38;5085171;28;20220;-61
2024/01/24 07:50:33;;;;;;;13.13;5.87;;;;;;;4.73;72.94;98034.94;5085475;28;20200;-61
2024/01/24 07:53:54;;;;;;;8.50;4.37;;;;;;;4.69;72.97;98040.97;5086707;28;20193;-61
2024/01/24 07:57:14;;;;;;;10.37;6.53;;;;;;;4.60;73.92;98051.25;5086626;28;20287;-60
2024/01/24 08:00:35;;;;;;;9.30;6.00;;;;;;;4.60;73.52;98055.53;5085339;28;20229;-60
2024/01/24 08:03:56;;;;;;;12.50;6.77;;;;;;;4.64;74.08;98032.44;5084972;28;20572;-60
2024/01/24 08:07:17;;;;;;;9.90;5.70;;;;;;;4.76;72.72;98047.72;5086317;28;20630;-61
2024/01/24 08:10:37;;;;;;;8.67;6.13;;;;;;;4.80;71.89;98028.88;5067986;28;20185;-60
2024/01/24 08:13:58;;;;;;;8.47;5.20;;;;;;;5.01;71.18;98042.44;5086091;28;20284;-60
2024/01/24 08:17:19;;;;;;;8.10;5.37;;;;;;;5.01;71.55;98048.41;5050854;28;20237;-60
2024/01/24 08:20:40;;;;;;;6.90;4.80;;;;;;;5.14;71.12;98044.03;5085295;28;20187;-60
2024/01/24 08:24:01;;;;;;;9.53;6.17;;;;;;;5.32;70.55;98059.25;5084944;28;20646;-60
2024/01/24 08:27:22;;;;;;;8.47;5.60;;;;;;;5.29;69.61;98043.91;5085722;28;20197;-60
2024/01/24 08:30:43;;;;;;;7.43;5.77;;;;;;;5.39;69.69;98046.38;5084313;28;20186;-61
2024/01/24 08:34:04;;;;;;;9.93;5.90;;;;;;;5.53;69.54;98059.06;5065933;28;20193;-61
2024/01/24 08:37:25;;;;;;;10.53;5.43;;;;;;;5.54;70.25;98071.06;5067307;28;20222;-60
2024/01/24 08:40:45;;;;;;;8.10;4.83;;;;;;;5.71;68.39;98076.88;5067440;28;20198;-62
2024/01/24 08:44:06;;;;;;;9.23;5.30;;;;;;;5.57;68.20;98059.03;5084813;28;20196;-61
2024/01/24 08:47:27;;;;;;;6.30;4.90;;;;;;;5.69;68.44;98076.91;5083510;28;20195;-59
2024/01/24 08:50:48;;;;;;;8.60;5.93;;;;;;;5.66;67.39;98076.94;5084424;28;20522;-62
2024/01/24 08:54:08;;;;;;;8.70;5.80;;;;;;;5.56;67.93;98077.03;5085129;28;20577;-61
2024/01/24 08:57:29;;;;;;;5.33;4.00;;;;;;;5.28;68.16;98027.63;5085233;28;20271;-60
2024/01/24 09:00:50;;;;;;;7.57;5.10;;;;;;;5.34;68.60;98026.72;5065404;28;20199;-60
2024/01/24 09:04:12;;;;;;;6.97;5.10;;;;;;;5.64;69.21;98073.53;5084106;28;20195;-63
2024/01/24 09:07:32;;;;;;;9.43;5.43;;;;;;;5.76;68.12;98068.28;5084826;28;20195;-61
2024/01/24 09:10:53;;;;;;;6.23;4.03;;;;;;;5.86;68.40;98089.59;5084889;28;20195;-64
2024/01/24 09:14:14;;;;;;;7.97;5.67;;;;;;;5.86;68.10;98074.19;5084630;28;20191;-63
2024/01/24 09:17:35;;;;;;;7.00;5.00;;;;;;;5.98;66.25;98084.34;5067770;28;20224;-64
2024/01/24 09:20:56;;;;;;;8.13;5.27;;;;;;;5.81;67.44;98065.66;5085019;28;20181;-64
2024/01/24 09:24:17;;;;;;;10.77;6.03;;;;;;;5.90;68.89;98034.72;5084771;28;20752;-65
2024/01/24 09:27:38;;;;;;;8.73;5.30;;;;;;;6.16;67.70;98068.69;5084881;28;20221;-63
2024/01/24 09:30:59;;;;;;;10.97;5.37;;;;;;;6.02;67.82;98072.31;5067370;28;20656;-60
2024/01/24 09:34:20;;;;;;;10.43;5.57;;;;;;;6.08;68.11;98072.25;5084123;28;20187;-61
2024/01/24 09:37:44;;;;;;;11.23;5.73;;;;;;;6.10;66.21;98044.78;5088602;28;20233;-62
2024/01/24 09:41:05;;;;;;;9.30;5.57;;;;;;;6.52;66.30;98072.53;5088715;28;20294;-60
2024/01/24 09:44:25;;;;;;;9.40;5.43;;;;;;;6.29;65.94;98079.69;5088012;28;20198;-62
2024/01/24 09:47:47;;;;;;;7.30;4.30;;;;;;;6.40;65.07;98078.69;5087922;28;20754;-65
2024/01/24 09:51:07;;;;;;;7.37;5.00;;;;;;;6.32;65.87;98065.09;5073682;28;20221;-62
2024/01/24 09:54:28;;;;;;;7.20;4.97;;;;;;;6.23;66.20;98065.19;5088348;28;20198;-61
2024/01/24 09:57:49;;;;;;;10.77;5.47;;;;;;;6.12;65.90;98061.88;5087933;28;20301;-64
2024/01/24 10:01:09;;;;;;;5.93;4.60;;;;;;;6.08;65.95;98052.50;5087066;28;20192;-63
2024/01/24 10:04:36;;;;;;;6.53;4.77;;;;;;;6.20;64.39;98042.06;5087692;28;20544;-60
2024/01/24 10:07:57;;;;;;;7.33;5.20;;;;;;;6.46;64.96;98042.59;5088434;28;20289;-63
2024/01/24 10:11:18;;;;;;;6.70;4.23;;;;;;;6.67;62.89;98058.59;5088289;28;20234;-63
2024/01/24 10:14:40;;;;;;;6.10;4.20;;;;;;;6.25;62.90;98031.72;5067976;28;20222;-62
2024/01/24 10:18:01;;;;;;;6.53;3.83;;;;;;;6.22;62.38;98027.47;5086088;28;20226;-63
2024/01/24 10:21:22;;;;;;;7.27;4.63;;;;;;;6.17;63.11;97997.53;5087760;28;20204;-61
2024/01/24 10:24:42;;;;;;;7.80;4.87;;;;;;;6.50;62.54;98000.50;5087909;28;20568;-62
2024/01/24 10:28:03;;;;;;;5.90;4.47;;;;;;;6.24;63.30;97997.47;5087615;28;20236;-60
2024/01/24 10:31:24;;;;;;;6.23;4.17;;;;;;;6.19;62.83;97996.66;5086289;28;20672;-64
2024/01/24 10:34:48;;;;;;;6.87;4.50;;;;;;;6.18;62.67;97984.66;5086744;28;20199;-61
2024/01/24 10:38:09;;;;;;;4.20;3.53;;;;;;;5.82;62.26;97923.41;5087809;28;20789;-61
2024/01/24 10:41:30;;;;;;;6.60;4.03;;;;;;;6.18;61.87;97979.50;5087792;28;20185;-59
2024/01/24 10:44:50;;;;;;;7.40;3.80;;;;;;;6.20;62.53;97982.91;5086446;28;20213;-62
2024/01/24 10:48:11;;;;;;;7.63;4.63;;;;;;;6.29;61.50;97993.09;5085549;28;20631;-61
2024/01/24 10:51:33;;;;;;;5.97;4.23;;;;;;;6.22;60.92;97980.34;5087356;28;20197;-61
2024/01/24 10:54:54;;;;;;;5.63;3.90;;;;;;;6.27;62.18;97971.69;5087279;28;20675;-61
2024/01/24 10:58:14;;;;;;;6.53;3.87;;;;;;;6.31;61.47;97960.47;5086690;28;20216;-60
2024/01/24 11:01:35;;;;;;;8.03;4.47;;;;;;;6.07;62.68;97968.53;5084598;28;20270;-60
2024/01/24 11:04:56;;;;;;;6.23;3.70;;;;;;;5.92;60.98;97939.59;5086373;28;20741;-60
2024/01/24 11:08:19;;;;;;;7.47;4.20;;;;;;;6.20;61.03;97948.66;5087234;28;20596;-61
2024/01/24 11:11:40;;;;;;;7.03;3.50;;;;;;;6.45;60.62;97948.25;5086761;28;20631;-61
2024/01/24 11:14:51;;;;;;;7.43;3.50;;;;;;;6.24;61.20;97964.03;5067533;28;20194;-62
2024/01/24 11:18:14;;;;;;;7.57;5.03;;;;;;;6.44;60.26;97948.28;5085446;28;20284;-60
2024/01/24 11:21:35;;;;;;;8.50;4.37;;;;;;;6.44;60.38;97938.84;5086889;28;20641;-60
2024/01/24 11:24:37;;;;;;;9.17;4.27;;;;;;;6.79;59.92;97940.00;5068527;28;20224;-60
2024/01/24 11:28:04;;;;;;;4.70;3.57;;;;;;;6.59;59.34;97936.03;5085056;28;20214;-62
2024/01/24 11:31:25;;;;;;;5.03;3.30;;;;;;;6.35;60.55;97943.28;5084987;28;20565;-62
2024/01/24 11:34:52;;;;;;;6.30;4.07;;;;;;;6.33;60.37;97930.44;5068775;28;20254;-60
2024/01/24 11:38:13;;;;;;;6.03;3.83;;;;;;;6.34;60.32;97939.00;5086413;28;20267;-61
2024/01/24 11:41:20;;;;;;;11.07;5.97;;;;;;;6.58;60.60;97924.06;5086600;28;20191;-62
2024/01/24 11:44:41;;;;;;;4.63;3.60;;;;;;;6.54;59.96;97929.25;5084653;28;20302;-59
2024/01/24 11:48:02;;;;;;;8.17;4.10;;;;;;;6.41;60.29;97943.19;5067384;28;20297;-59
2024/01/24 11:51:25;;;;;;;5.80;4.07;;;;;;;6.20;60.62;97920.38;5086372;28;20199;-60
2024/01/24 11:54:46;;;;;;;5.93;3.23;;;;;;;6.30;59.83;97891.06;5086041;28;20205;-62
2024/01/24 11:58:09;;;;;;;5.80;3.30;;;;;;;6.44;58.71;97912.28;5084430;28;20232;-60
2024/01/24 12:01:29;;;;;;;13.53;4.03;;;;;;;6.53;60.04;97904.44;5084897;28;20202;-59
2024/01/24 12:04:50;;;;;;;6.33;3.60;;;;;;;6.49;58.86;97913.88;5067892;28;20198;-62
2024/01/24 12:08:11;;;;;;;2.87;2.57;;;;;;;6.40;58.54;97890.91;5086026;28;20200;-62
2024/01/24 12:11:31;;;;;;;5.30;3.60;;;;;;;6.33;58.33;97870.41;5084985;28;20524;-59
2024/01/24 12:14:52;;;;;;;6.23;3.50;;;;;;;6.47;57.69;97876.22;5084132;28;20200;-60
2024/01/24 12:18:13;;;;;;;6.97;3.40;;;;;;;6.26;59.22;97850.84;5084982;28;20220;-61
2024/01/24 12:21:34;;;;;;;3.03;2.63;;;;;;;6.37;58.32;97861.78;5085535;28;20197;-60
2024/01/24 12:24:54;;;;;;;5.87;3.43;;;;;;;6.46;59.50;97854.78;5085136;28;20288;-63
2024/01/24 12:28:15;;;;;;;5.30;3.50;;;;;;;6.45;59.12;97847.94;5083612;28;20674;-61
2024/01/24 12:31:38;;;;;;;4.57;3.60;;;;;;;6.68;56.77;97829.53;5084164;28;20594;-61
2024/01/24 12:35:07;;;;;;;5.33;3.20;;;;;;;6.58;57.32;97834.00;5085497;28;20188;-63
2024/01/24 12:38:31;;;;;;;3.33;2.67;;;;;;;6.43;55.79;97820.53;5085673;28;20654;-62
2024/01/24 12:41:51;;;;;;;5.83;2.80;;;;;;;6.71;56.10;97826.03;5084891;28;20561;-64
2024/01/24 12:45:12;;;;;;;6.17;3.60;;;;;;;6.74;56.33;97826.00;5083811;28;20676;-63
2024/01/24 12:48:34;;;;;;;4.40;3.20;;;;;;;6.73;54.41;97822.56;5084779;28;20570;-64
2024/01/24 12:51:55;;;;;;;4.77;3.03;;;;;;;6.79;54.57;97816.47;5067171;28;20184;-63
2024/01/24 12:55:16;;;;;;;7.77;3.80;;;;;;;6.94;55.71;97798.16;5085308;28;20683;-62
2024/01/24 12:58:37;;;;;;;6.40;3.70;;;;;;;7.18;54.67;97813.97;5083232;28;20192;-64
2024/01/24 13:01:59;;;;;;;4.57;2.90;;;;;;;6.96;55.07;97791.25;5083355;28;20625;-62
2024/01/24 13:05:22;;;;;;;7.50;3.67;;;;;;;7.06;56.17;97798.78;5069657;28;20282;-62
2024/01/24 13:08:43;;;;;;;13.43;7.23;;;;;;;7.03;55.57;97803.09;5066492;28;20279;-63
2024/01/24 13:12:03;;;;;;;6.17;3.23;;;;;;;7.08;56.55;97802.16;5084082;28;20278;-63
2024/01/24 13:15:24;;;;;;;7.27;3.97;;;;;;;7.04;55.43;97794.53;5083579;28;20276;-63
2024/01/24 13:18:45;;;;;;;6.77;3.47;;;;;;;7.11;55.58;97791.78;5084124;28;20188;-61
2024/01/24 13:22:05;;;;;;;5.13;3.63;;;;;;;7.01;55.26;97792.00;5085050;28;20222;-63
2024/01/24 13:25:26;;;;;;;5.47;3.83;;;;;;;7.21;55.23;97787.31;5084988;28;20229;-64
2024/01/24 13:28:47;;;;;;;4.53;3.23;;;;;;;7.34;55.42;97774.13;5083234;28;20284;-62
2024/01/24 13:32:08;;;;;;;4.37;3.47;;;;;;;7.42;54.37;97778.28;5083230;28;20196;-60
2024/01/24 13:35:29;;;;;;;6.30;4.03;;;;;;;7.46;54.50;97769.59;5067006;28;20229;-63
2024/01/24 13:38:50;;;;;;;15.87;9.17;;;;;;;7.28;54.21;97756.22;5084893;28;20563;-64
2024/01/24 13:42:11;;;;;;;5.87;3.47;;;;;;;7.27;54.86;97761.44;5066133;28;20237;-64
2024/01/24 13:45:32;;;;;;;5.27;3.90;;;;;;;7.46;54.88;97769.59;5083055;28;20328;-64